Nearby METAR Reports

 

EDNY - Friedrichshafen, Germany
Distance from station: O 31km
aktuell: 20.04.2014 05:20
Fog, Few clouds
Fog, Few clouds
 Wind von varies
Wind: varies 2 km/h
Temperatur: 4°C
Taupunkt: 3°C
Luftfeuchte: 93%
Luftdruck: 1006 hPa
Zusammenfassung: Fog
Clouds: Few Clouds
Visibility: 0 km
Cloud details: Few Clouds 0 m
2014/04/20 03:20 EDNY 200320Z VRB01KT 0050 R24/0225N FG FEW000 04/03 Q1006
LSZR - Rheineck/Altenrh, Switzerland
Distance from station: SO 42km
aktuell: 20.04.2014 05:20
Mist, klar
Mist, klar
 Wind von varies
Wind: varies 6 km/h
Temperatur: 0°C
Taupunkt: 0°C
Luftfeuchte: 100%
Luftdruck: 1006 hPa
Zusammenfassung: Mist
Clouds: klar
Visibility: 3 km
2014/04/20 03:20 LSZR 200320Z AUTO VRB03KT 2800 BR NCD 00/M00 Q1006
LSZH - Zurich-Kloten (a, Switzerland
Distance from station: WSW 49km
aktuell: 20.04.2014 05:20
stark bewölkt
stark bewölkt
 Wind von SSO
Wind: SSO 9 km/h
Temperatur: 3°C
gefühlte Temperatur: 0°C
Taupunkt: 3°C
Luftfeuchte: 100%
Luftdruck: 1006 hPa
Clouds: stark bewölkt
Visibility: 7 km
Cloud details: Few Clouds 396 m
stark bewölkt 671 m
2014/04/20 03:20 LSZH 200320Z 15005KT 7000 FEW013 BKN022 03/03 Q1006 BECMG 4000
 
EDTD - Donaueschingen, Germany
Distance from station: NW 53km
aktuell: 19.04.2014 16:50
NOT Current
stark bewölkt
stark bewölkt
 Wind von ONO
Wind: ONO 19 km/h
Temperatur: 7°C
gefühlte Temperatur: 4°C
Taupunkt: 7°C
Luftfeuchte: 100%
Luftdruck: 1009 hPa
Clouds: stark bewölkt
Visibility: 10 km
Cloud details: teilweise bewölkt 366 m
stark bewölkt 579 m
2014/04/19 14:50 EDTD 191450Z 06010KT 020V080 9999 SCT012 BKN019 07/07 Q1009
ETGZ - Messstetten, Germany
Distance from station: N 54km
aktuell: 30.09.2013 14:20
NOT Current
geschlossene Wolkendecke
geschlossene Wolkendecke
 Wind von varies
Wind: varies 4 km/h
Temperatur: 8°C
Taupunkt: 7°C
Luftfeuchte: 93%
Luftdruck: 1007 hPa
Clouds: geschlossene Wolkendecke
Visibility: 10 km
Cloud details: geschlossene Wolkendecke 213 m
2013/09/30 12:20 ETGZ 301220Z VRB02KT 9999 OVC007 08/07 Q1007 GRN
LOIH - Hohenems-Dornbir, Austria
Distance from station: SO 57km
aktuell: 19.04.2014 18:00
NOT Current
stark bewölkt
stark bewölkt
 Wind von N
Wind: N 4 km/h
Temperatur: 10°C
Taupunkt: 4°C
Luftfeuchte: 67%
Luftdruck: 1007 hPa
Clouds: stark bewölkt
Cloud details: Few Clouds 610 m
stark bewölkt 914 m
2014/04/19 16:00 LOIH 191600Z 36002KT 35KM FEW020SC BKN030SC 10/04 Q1007 RMK BKN
 
ETHL - Laupheim (ger-Ar, Germany
Distance from station: NO 84km
aktuell: 20.04.2014 05:20

 Wind von O
Wind: O 9 km/h
Temperatur: 6°C
gefühlte Temperatur: 4°C
Taupunkt: 6°C
Luftfeuchte: 100%
Luftdruck: 1005 hPa
Visibility: 4 km
2014/04/20 03:20 ETHL 200320Z AUTO 10005KT 3800 // ////// 06/06 Q1005 ///
EDJA - Memmingen Allgau, Germany
Distance from station: ONO 90km
aktuell: 19.04.2014 21:20
NOT Current
Few Clouds
Few Clouds
 Wind von ONO
Wind: ONO 4 km/h
Temperatur: 6°C
Taupunkt: 5°C
Luftfeuchte: 93%
Luftdruck: 1008 hPa
Clouds: Few Clouds
Visibility: 5 km
Cloud details: Few Clouds 823 m
2014/04/19 19:20 EDJA 191920Z 07002KT 5000 FEW027 06/05 Q1008
LSME - Emmen, Switzerland
Distance from station: SW 90km
aktuell: 20.04.2014 04:50
geschlossene Wolkendecke
geschlossene Wolkendecke
 Wind von SW
Wind: SW 9 km/h
Temperatur: 7°C
gefühlte Temperatur: 6°C
Taupunkt: 3°C
Luftfeuchte: 76%
Luftdruck: 1007 hPa
Clouds: geschlossene Wolkendecke
Visibility: 16 miles
Cloud details: geschlossene Wolkendecke 792 m
2014/04/20 02:50 LSME 200250Z AUTO 23005KT 9999NDV OVC026 07/03 Q1007 RMK WHT
 
LSZC - Buochs, Switzerland
Distance from station: SSW 98km
aktuell: 20.04.2014 05:20
stark bewölkt
stark bewölkt
 Wind von SW
Wind: SW 9 km/h
Temperatur: 4°C
gefühlte Temperatur: 2°C
Taupunkt: 2°C
Luftfeuchte: 87%
Luftdruck: 1007 hPa
Clouds: stark bewölkt
Visibility: 10 km
Cloud details: stark bewölkt 732 m
2014/04/20 03:20 LSZC 200320Z AUTO 22005KT 9999 BKN024 04/02 Q1007